Curacavi, Chile
Current Conditions -  °F | °C
As of 1:00 AM on Thursday 27 Nov 2014 (Local Time) from SCEL Reporting Station
Clear Clear  
Wind Chill: 64°   Ceiling: Unl
Heat Index: 64°   Visibility: 6mi
Dew Point: 43°   Wind: 6mph
Humidity: 45%   Direction: 120°ESE
Pressure: 29.97"   Gusts: NA
Location:  33.2°S, 71.12°W
Report Text: SCEL 270400Z 12005KT CAVOK 18/06 Q1015 NOSIG
Loading
Personal Weather Stations






























Interactive Weather Map New forecast layout! Learn more

10-Day Weather Forecast

Advertisements
Track Severe Weather on mobile